Time;durP1;ratioP1;P1;durP2;ratioP2;P2;SDS_P1;SDS_P2;PMS_P1;PMS_P2;Temp;Humidity;BMP_temperature;BMP_pressure;BME280_temperature;BME280_humidity;BME280_pressure;Samples;Min_cycle;Max_cycle;Signal;HPM_P1;HPM_P2
2022/07/28 00:01:36;;;;;;;15.18;6.05;;;;;;;19.29;70.56;100421.39;1654586;86;21682;-54
2022/07/28 00:04:42;;;;;;;8.23;6.25;;;;;;;19.27;70.65;100420.73;1654870;86;21195;-54
2022/07/28 00:07:48;;;;;;;9.20;6.53;;;;;;;19.25;70.74;100420.97;1675761;85;21214;-55
2022/07/28 00:10:56;;;;;;;9.10;5.87;;;;;;;19.23;70.77;100427.28;1675794;85;21539;-54
2022/07/28 00:14:01;;;;;;;6.60;5.85;;;;;;;19.20;70.75;100429.70;1677068;85;21242;-55
2022/07/28 00:17:08;;;;;;;6.90;5.85;;;;;;;19.17;70.81;100431.55;1675738;85;21254;-55
2022/07/28 00:20:16;;;;;;;9.25;5.95;;;;;;;19.15;70.89;100433.13;1675851;85;21215;-55
2022/07/28 00:23:23;;;;;;;9.10;6.15;;;;;;;19.14;71.01;100446.72;1675860;85;21246;-55
2022/07/28 00:26:29;;;;;;;12.93;6.83;;;;;;;19.12;71.04;100437.76;1675851;85;21345;-55
2022/07/28 00:29:35;;;;;;;11.18;6.17;;;;;;;19.10;71.04;100437.16;1676187;85;21285;-55
2022/07/28 00:32:43;;;;;;;9.28;5.80;;;;;;;19.07;71.06;100434.85;1676262;85;21397;-55
2022/07/28 00:35:49;;;;;;;10.18;5.80;;;;;;;19.04;71.09;100430.30;1676358;85;21344;-54
2022/07/28 00:38:55;;;;;;;12.63;6.15;;;;;;;19.03;71.22;100438.29;1676283;85;21286;-54
2022/07/28 00:42:02;;;;;;;8.78;6.15;;;;;;;19.02;71.37;100444.40;1676216;85;21273;-54
2022/07/28 00:45:07;;;;;;;11.50;6.60;;;;;;;19.00;71.48;100434.59;1676228;85;21270;-53
2022/07/28 00:48:13;;;;;;;10.28;6.58;;;;;;;18.98;71.48;100432.05;1676189;85;21321;-54
2022/07/28 00:51:18;;;;;;;7.67;6.28;;;;;;;18.96;71.49;100432.80;1676183;85;21215;-55
2022/07/28 00:54:24;;;;;;;11.80;6.72;;;;;;;18.92;71.45;100428.80;1676216;85;21207;-55
2022/07/28 00:57:30;;;;;;;9.00;6.47;;;;;;;18.91;71.47;100438.74;1676400;85;21380;-54
2022/07/28 01:00:38;;;;;;;9.28;6.62;;;;;;;18.90;71.58;100443.44;1676233;85;21476;-55
2022/07/28 01:03:48;;;;;;;14.10;7.50;;;;;;;18.91;71.72;100453.47;1676186;85;21203;-55
2022/07/28 01:07:07;;;;;;;11.97;7.05;;;;;;;18.92;71.86;100452.39;1686524;81;21272;-54
2022/07/28 01:10:25;;;;;;;8.58;6.92;;;;;;;18.93;71.98;100450.47;1731344;82;21220;-54
2022/07/28 01:13:58;;;;;;;8.03;7.22;;;;;;;18.93;72.02;100443.53;1731378;82;21235;-53
2022/07/28 01:17:29;;;;;;;9.53;7.03;;;;;;;18.94;72.09;100454.41;1731743;82;21219;-54
2022/07/28 01:20:54;;;;;;;10.40;7.70;;;;;;;18.93;72.11;100448.52;1731770;83;21232;-54
2022/07/28 01:24:19;;;;;;;10.35;7.45;;;;;;;18.95;72.26;100448.29;1731768;83;21192;-55
2022/07/28 01:27:32;;;;;;;9.25;7.55;;;;;;;18.96;72.47;100445.28;1731481;83;21224;-54
2022/07/28 01:30:48;;;;;;;10.00;7.12;;;;;;;18.98;72.58;100452.85;1731283;83;21231;-54
2022/07/28 01:33:58;;;;;;;7.85;6.42;;;;;;;18.98;72.58;100457.58;1731414;83;21207;-54
2022/07/28 01:37:04;;;;;;;11.73;7.58;;;;;;;18.98;72.61;100458.41;1731303;83;21278;-55
2022/07/28 01:40:12;;;;;;;8.95;7.22;;;;;;;18.98;72.68;100455.62;1731254;83;21756;-54
2022/07/28 01:43:23;;;;;;;10.43;7.65;;;;;;;19.00;72.73;100458.17;1716521;83;21279;-54
2022/07/28 01:46:28;;;;;;;7.78;6.97;;;;;;;18.98;72.66;100458.41;1731970;82;21179;-53
2022/07/28 01:49:35;;;;;;;10.35;7.70;;;;;;;18.96;72.66;100459.16;1731707;83;21342;-53
2022/07/28 01:52:42;;;;;;;8.33;7.37;;;;;;;18.96;72.68;100459.16;1716747;83;21290;-54
2022/07/28 01:55:52;;;;;;;8.93;7.92;;;;;;;18.96;72.80;100456.39;1731772;83;21251;-54
2022/07/28 01:58:59;;;;;;;11.22;8.75;;;;;;;18.98;72.92;100457.02;1731762;83;21192;-54
2022/07/28 02:02:05;;;;;;;10.65;7.62;;;;;;;18.97;72.97;100453.94;1731752;83;21246;-53
2022/07/28 02:05:13;;;;;;;9.75;7.45;;;;;;;18.98;73.06;100452.03;1731754;83;21239;-54
2022/07/28 02:08:20;;;;;;;8.68;7.60;;;;;;;18.96;73.14;100455.00;1719385;83;21320;-54
2022/07/28 02:11:41;;;;;;;8.25;7.08;;;;;;;18.95;73.12;100461.64;1708962;83;21330;-53
2022/07/28 02:14:48;;;;;;;10.43;7.33;;;;;;;18.93;73.04;100466.55;1708625;83;21197;-54
2022/07/28 02:17:54;;;;;;;10.10;7.72;;;;;;;18.89;73.05;100472.27;1708365;84;21317;-55
2022/07/28 02:21:00;;;;;;;8.75;6.47;;;;;;;18.89;73.07;100468.11;1708468;83;21584;-55
2022/07/28 02:24:05;;;;;;;10.23;7.35;;;;;;;18.88;73.13;100479.43;1708394;84;21201;-54
2022/07/28 02:27:30;;;;;;;10.30;7.80;;;;;;;18.87;73.26;100478.57;1708400;84;21236;-53
2022/07/28 02:30:40;;;;;;;9.53;7.75;;;;;;;18.88;73.40;100480.81;1708539;84;21201;-54
2022/07/28 02:33:47;;;;;;;9.40;7.08;;;;;;;18.89;73.55;100484.75;1708603;83;21205;-54
2022/07/28 02:37:08;;;;;;;8.03;6.80;;;;;;;18.90;73.65;100494.76;1708359;84;21257;-55
2022/07/28 02:40:18;;;;;;;8.25;7.42;;;;;;;18.90;73.63;100490.59;1710469;83;21248;-54
2022/07/28 02:43:26;;;;;;;10.55;6.85;;;;;;;18.92;73.62;100497.30;1708475;83;21216;-55
2022/07/28 02:46:38;;;;;;;12.78;6.80;;;;;;;18.97;73.73;100490.02;1708184;83;21271;-55
2022/07/28 02:49:45;;;;;;;9.15;6.33;;;;;;;19.04;73.80;100491.34;1698660;84;21193;-56
2022/07/28 02:52:52;;;;;;;11.25;6.90;;;;;;;19.09;73.96;100485.40;1708933;83;21264;-55
2022/07/28 02:56:01;;;;;;;9.65;7.03;;;;;;;19.17;74.04;100494.82;1708715;83;21205;-55
2022/07/28 02:59:08;;;;;;;12.58;7.05;;;;;;;19.27;74.15;100492.91;1708342;84;21197;-55
2022/07/28 03:02:19;;;;;;;9.48;7.50;;;;;;;19.36;74.26;100496.28;1708398;84;21209;-55
2022/07/28 03:05:27;;;;;;;12.00;7.72;;;;;;;19.46;74.38;100505.77;1708363;84;21237;-54
2022/07/28 03:08:35;;;;;;;12.07;7.40;;;;;;;19.53;74.32;100505.70;1707261;82;21272;-55
2022/07/28 03:11:42;;;;;;;11.28;7.25;;;;;;;19.59;74.30;100510.31;1708582;84;21229;-54
2022/07/28 03:14:48;;;;;;;11.90;7.85;;;;;;;19.66;74.30;100505.55;1708681;83;21201;-55
2022/07/28 03:17:54;;;;;;;12.60;8.08;;;;;;;19.74;74.40;100508.84;1708606;84;21781;-55
2022/07/28 03:21:03;;;;;;;8.18;7.20;;;;;;;19.83;74.47;100509.39;1708615;84;21197;-55
2022/07/28 03:24:09;;;;;;;11.50;7.45;;;;;;;19.88;74.52;100508.16;1708583;84;21189;-52
2022/07/28 03:27:32;;;;;;;11.55;8.48;;;;;;;19.94;74.57;100515.55;1708744;84;21197;-53
2022/07/28 03:30:47;;;;;;;14.28;8.25;;;;;;;19.96;74.52;100520.34;1708852;84;21205;-55
2022/07/28 03:33:55;;;;;;;12.43;8.80;;;;;;;19.94;74.47;100523.36;1700441;84;21181;-55
2022/07/28 03:37:18;;;;;;;17.52;8.80;;;;;;;19.93;74.48;100512.48;1708597;84;21201;-55
2022/07/28 03:40:27;;;;;;;10.30;8.95;;;;;;;19.94;74.45;100514.17;1708745;84;21201;-55
2022/07/28 03:43:33;;;;;;;13.38;9.85;;;;;;;19.98;74.53;100515.41;1708614;84;21209;-55
2022/07/28 03:46:39;;;;;;;12.50;10.72;;;;;;;20.03;74.64;100515.53;1708707;84;21267;-55
2022/07/28 03:49:47;;;;;;;11.68;10.32;;;;;;;20.12;74.79;100523.32;1708658;83;21201;-56
2022/07/28 03:52:53;;;;;;;12.43;10.98;;;;;;;20.20;74.90;100509.69;1708674;84;21252;-55
2022/07/28 03:56:02;;;;;;;14.93;12.10;;;;;;;20.27;74.94;100509.90;1708880;83;21193;-55
2022/07/28 03:59:07;;;;;;;16.77;12.37;;;;;;;20.35;75.06;100512.88;1708732;84;21181;-55
2022/07/28 04:02:13;;;;;;;14.38;12.98;;;;;;;20.48;75.21;100518.25;1708720;84;21291;-55
2022/07/28 04:05:22;;;;;;;13.83;12.40;;;;;;;20.58;75.35;100512.98;1708735;84;21177;-55
2022/07/28 04:08:30;;;;;;;16.52;12.98;;;;;;;20.69;75.41;100516.33;1708660;83;21212;-55
2022/07/28 04:11:36;;;;;;;14.25;12.82;;;;;;;20.80;75.43;100521.90;1707203;83;21260;-55
2022/07/28 04:14:41;;;;;;;18.85;14.63;;;;;;;20.90;75.40;100519.09;1708670;84;21252;-55
2022/07/28 04:17:48;;;;;;;18.85;14.60;;;;;;;20.99;75.51;100519.08;1708615;84;21284;-55
2022/07/28 04:20:56;;;;;;;18.05;14.68;;;;;;;21.13;75.62;100525.57;1708775;83;21244;-54
2022/07/28 04:24:02;;;;;;;16.05;14.38;;;;;;;21.26;75.68;100528.13;1708577;84;21193;-55
2022/07/28 04:27:12;;;;;;;17.37;15.18;;;;;;;21.42;75.76;100530.16;1708983;83;21236;-55
2022/07/28 04:30:23;;;;;;;18.67;14.65;;;;;;;21.60;75.85;100531.43;1708676;84;21216;-55
2022/07/28 04:33:30;;;;;;;18.83;16.03;;;;;;;21.77;75.92;100535.75;1708830;84;21217;-55
2022/07/28 04:36:40;;;;;;;20.65;16.48;;;;;;;21.97;75.93;100538.44;1708595;84;21441;-55
2022/07/28 04:39:45;;;;;;;20.85;16.32;;;;;;;22.12;75.88;100544.86;1708596;84;21249;-54
2022/07/28 04:42:52;;;;;;;19.77;16.85;;;;;;;22.22;75.80;100547.88;1708664;83;21205;-54
2022/07/28 04:46:00;;;;;;;21.27;17.23;;;;;;;22.28;75.74;100547.44;1708559;84;21255;-56
2022/07/28 04:49:08;;;;;;;19.20;17.20;;;;;;;22.35;75.73;100550.91;1708528;83;21197;-55
2022/07/28 04:52:14;;;;;;;19.37;17.20;;;;;;;22.41;75.73;100556.35;1708371;84;21245;-54
2022/07/28 04:55:21;;;;;;;20.32;18.17;;;;;;;22.47;75.75;100554.53;1704589;84;21215;-55
2022/07/28 04:58:28;;;;;;;22.87;18.73;;;;;;;22.52;75.76;100549.91;1711672;82;21240;-55
2022/07/28 05:01:37;;;;;;;21.68;19.48;;;;;;;22.55;75.75;100556.95;1704513;84;21254;-53
2022/07/28 05:04:46;;;;;;;22.95;20.55;;;;;;;22.57;75.81;100558.92;1703152;83;21221;-55
2022/07/28 05:07:55;;;;;;;22.95;20.70;;;;;;;22.64;75.89;100555.44;1687192;84;21236;-51
2022/07/28 05:11:14;;;;;;;22.75;20.43;;;;;;;22.69;75.86;100560.56;1680971;84;21453;-53
2022/07/28 05:14:31;;;;;;;22.70;19.32;;;;;;;22.83;75.86;100556.92;1851978;75;22326;-51
2022/07/28 05:17:38;;;;;;;21.75;19.55;;;;;;;22.82;75.84;100561.64;1752565;79;21204;-51
2022/07/28 05:20:43;;;;;;;23.62;21.00;;;;;;;22.90;75.87;100557.59;1784048;78;21247;-50
2022/07/28 05:23:51;;;;;;;21.05;18.82;;;;;;;23.00;75.90;100560.58;1785816;77;21570;-51
2022/07/28 05:27:04;;;;;;;22.10;19.80;;;;;;;23.08;75.87;100565.75;1789010;79;21609;-50
2022/07/28 05:30:16;;;;;;;27.60;19.87;;;;;;;23.14;75.83;100554.95;1775172;78;21263;-48
2022/07/28 05:33:24;;;;;;;21.00;18.95;;;;;;;23.14;75.76;100561.94;1774284;79;21288;-49
2022/07/28 05:36:31;;;;;;;20.57;18.48;;;;;;;23.18;75.88;100558.38;1764365;76;21283;-50
2022/07/28 05:39:39;;;;;;;19.77;17.62;;;;;;;23.23;75.83;100556.24;1772343;77;21469;-49
2022/07/28 05:42:47;;;;;;;18.52;16.57;;;;;;;23.33;75.90;100563.41;1753044;78;21213;-50
2022/07/28 05:45:54;;;;;;;18.87;16.97;;;;;;;23.48;76.01;100566.47;1751534;79;21465;-48
2022/07/28 05:49:00;;;;;;;18.32;16.42;;;;;;;23.63;76.00;100568.94;1768112;77;21264;-50
2022/07/28 05:52:06;;;;;;;17.45;15.65;;;;;;;23.75;75.89;100570.23;1767300;78;21636;-50
2022/07/28 05:55:13;;;;;;;19.12;16.30;;;;;;;23.86;75.83;100567.02;1769494;79;21271;-51
2022/07/28 05:58:27;;;;;;;22.02;17.12;;;;;;;23.98;75.80;100574.22;1773113;78;21330;-52
2022/07/28 06:01:33;;;;;;;21.25;17.75;;;;;;;24.08;75.78;100572.97;1761762;79;21216;-49
2022/07/28 06:04:41;;;;;;;19.50;17.27;;;;;;;24.16;75.76;100575.33;1780309;77;21244;-57
2022/07/28 06:07:49;;;;;;;18.73;16.73;;;;;;;24.16;75.56;100576.72;1724680;79;21232;-59
2022/07/28 06:11:10;;;;;;;19.55;16.20;;;;;;;24.16;75.57;100579.52;1745332;79;21183;-60
2022/07/28 06:14:19;;;;;;;20.02;17.15;;;;;;;24.16;75.57;100576.72;1771017;76;21824;-58
2022/07/28 06:17:26;;;;;;;23.02;17.57;;;;;;;24.16;75.57;100579.52;1767959;79;21202;-59
2022/07/28 06:20:33;;;;;;;18.45;16.40;;;;;;;24.14;75.51;100573.33;1765930;78;21708;-61
2022/07/28 06:23:39;;;;;;;17.90;16.05;;;;;;;24.16;75.54;100580.92;1764881;78;21750;-58
2022/07/28 06:26:45;;;;;;;17.57;15.78;;;;;;;24.24;75.67;100583.27;1758614;80;21271;-60
2022/07/28 06:29:50;;;;;;;20.08;17.92;;;;;;;24.34;75.71;100600.74;1762109;79;21790;-61
2022/07/28 06:32:55;;;;;;;20.20;17.85;;;;;;;24.39;75.78;100597.44;1781499;77;21229;-59
2022/07/28 06:36:04;;;;;;;19.00;16.35;;;;;;;24.49;75.85;100600.38;1761238;79;21236;-63
2022/07/28 06:39:09;;;;;;;17.20;15.40;;;;;;;24.60;75.90;100600.78;1751910;78;21317;-61
2022/07/28 06:42:15;;;;;;;17.50;15.70;;;;;;;24.68;75.87;100596.16;1742630;79;21217;-61
2022/07/28 06:45:20;;;;;;;18.30;15.40;;;;;;;24.74;75.87;100593.70;1784174;76;21248;-64
2022/07/28 06:48:26;;;;;;;18.37;15.30;;;;;;;24.80;75.82;100591.23;1793724;77;21251;-61
2022/07/28 06:51:35;;;;;;;21.55;17.17;;;;;;;24.83;75.75;100585.10;1767610;80;21371;-59
2022/07/28 06:54:41;;;;;;;16.55;14.20;;;;;;;24.88;75.81;100592.16;1780003;79;21715;-54
2022/07/28 06:57:48;;;;;;;21.82;13.70;;;;;;;24.95;75.92;100594.21;1765059;78;21208;-52
2022/07/28 07:00:57;;;;;;;15.80;14.10;;;;;;;25.04;75.94;100598.22;1765672;80;21951;-55
2022/07/28 07:04:04;;;;;;;16.10;14.50;;;;;;;25.12;75.92;100598.86;1735808;80;21216;-52
2022/07/28 07:07:10;;;;;;;15.48;13.88;;;;;;;25.16;75.91;100598.05;1757115;80;21296;-55
2022/07/28 07:10:19;;;;;;;16.27;14.58;;;;;;;25.23;75.87;100599.24;1739712;80;21789;-54
2022/07/28 07:13:26;;;;;;;18.50;14.07;;;;;;;25.27;75.89;100597.58;1742440;81;21846;-54
2022/07/28 07:16:39;;;;;;;14.78;13.32;;;;;;;25.36;75.95;100601.61;1751709;78;21726;-53
2022/07/28 07:19:53;;;;;;;16.45;14.75;;;;;;;25.42;75.95;100596.36;1772082;79;21514;-52
2022/07/28 07:23:08;;;;;;;17.17;15.30;;;;;;;25.49;76.01;100587.15;1770660;78;21430;-51
2022/07/28 07:26:15;;;;;;;20.27;13.83;;;;;;;25.58;76.09;100592.53;1791548;78;21212;-54
2022/07/28 07:29:27;;;;;;;13.43;12.03;;;;;;;25.66;76.06;100597.64;1785716;78;21340;-51
2022/07/28 07:32:34;;;;;;;14.70;12.37;;;;;;;25.73;76.07;100598.27;1719424;79;21256;-53
2022/07/28 07:35:40;;;;;;;15.75;11.97;;;;;;;25.80;76.03;100601.12;1776339;78;21284;-55
2022/07/28 07:38:50;;;;;;;14.83;11.68;;;;;;;25.88;75.98;100600.62;1739767;80;21263;-55
2022/07/28 07:42:02;;;;;;;13.28;11.97;;;;;;;25.96;75.97;100603.47;1762340;78;21205;-54
2022/07/28 07:45:06;;;;;;;13.28;11.97;;;;;;;26.03;75.95;100609.18;1762766;78;21828;-53
2022/07/28 07:48:13;;;;;;;13.62;11.83;;;;;;;26.09;75.93;100603.02;1742325;80;21235;-52
2022/07/28 07:51:18;;;;;;;12.20;10.58;;;;;;;26.15;75.87;100603.33;1769033;79;21264;-53
2022/07/28 07:54:31;;;;;;;9.80;8.63;;;;;;;26.23;75.85;100600.86;1779063;79;21196;-54
2022/07/28 07:57:38;;;;;;;11.22;9.58;;;;;;;26.31;75.79;100597.53;1767621;77;21248;-54
2022/07/28 08:00:47;;;;;;;10.30;9.05;;;;;;;26.38;75.64;100601.50;1757295;77;21235;-55
2022/07/28 08:03:59;;;;;;;11.08;9.98;;;;;;;26.43;75.53;100592.52;1766590;77;21586;-52
2022/07/28 08:07:07;;;;;;;10.23;9.18;;;;;;;26.50;75.36;100595.08;1774078;78;21828;-61
2022/07/28 08:10:18;;;;;;;9.83;8.70;;;;;;;26.54;75.21;100594.83;1781045;78;21307;-53
2022/07/28 08:13:27;;;;;;;10.63;8.03;;;;;;;26.55;75.11;100601.27;1747417;79;21792;-53
2022/07/28 08:16:33;;;;;;;11.48;7.12;;;;;;;26.57;75.12;100604.66;1763189;79;21187;-53
2022/07/28 08:19:39;;;;;;;9.68;7.42;;;;;;;26.64;75.10;100600.49;1759482;79;21753;-53
2022/07/28 08:22:59;;;;;;;9.38;7.53;;;;;;;26.71;74.94;100608.66;1746793;80;21188;-54
2022/07/28 08:26:06;;;;;;;12.55;7.80;;;;;;;26.77;74.87;100608.41;1745211;79;22361;-54
2022/07/28 08:29:12;;;;;;;9.45;6.45;;;;;;;26.86;74.88;100614.34;1774901;78;21292;-52
2022/07/28 08:32:18;;;;;;;6.00;5.37;;;;;;;26.93;74.82;100617.72;1744731;80;21247;-56
2022/07/28 08:35:28;;;;;;;8.00;6.25;;;;;;;27.01;74.70;100620.84;1746602;78;21231;-52
2022/07/28 08:38:34;;;;;;;8.88;7.25;;;;;;;27.09;74.59;100625.92;1784318;78;21213;-54
2022/07/28 08:42:20;;;;;;;8.08;6.58;;;;;;;27.17;74.49;100623.97;1749160;79;21224;-52
2022/07/28 08:45:26;;;;;;;10.65;7.47;;;;;;;27.26;74.55;100626.53;1734577;81;21244;-54
2022/07/28 08:48:42;;;;;;;10.85;7.47;;;;;;;27.38;74.54;100629.94;1795127;78;21226;-54
2022/07/28 08:51:52;;;;;;;9.25;7.33;;;;;;;27.45;74.32;100629.63;1747115;79;21220;-54
2022/07/28 08:55:07;;;;;;;9.25;8.28;;;;;;;27.49;74.16;100628.82;1698148;81;21761;-52
2022/07/28 08:58:15;;;;;;;11.08;7.72;;;;;;;27.56;74.07;100633.58;1751919;79;21236;-54
2022/07/28 09:01:21;;;;;;;10.20;7.05;;;;;;;27.62;73.82;100630.22;1774688;79;21859;-58
2022/07/28 09:04:45;;;;;;;6.45;5.85;;;;;;;27.62;73.63;100626.83;1738666;80;21289;-55
2022/07/28 09:07:53;;;;;;;5.87;5.20;;;;;;;27.62;73.47;100621.20;1746199;77;21220;-58
2022/07/28 09:11:00;;;;;;;7.47;4.25;;;;;;;27.67;73.35;100624.02;1734066;81;21275;-60
2022/07/28 09:14:09;;;;;;;5.75;4.47;;;;;;;27.72;73.10;100628.23;1742838;79;21271;-55
2022/07/28 09:17:17;;;;;;;5.08;4.58;;;;;;;27.76;72.89;100635.00;1762569;78;21231;-57
2022/07/28 09:20:26;;;;;;;5.62;4.60;;;;;;;27.83;72.68;100635.55;1777945;77;21264;-57
2022/07/28 09:23:53;;;;;;;6.45;5.35;;;;;;;27.86;72.63;100623.72;1749816;79;21191;-58
2022/07/28 09:27:08;;;;;;;5.90;5.35;;;;;;;27.97;72.66;100623.75;1777356;79;21242;-57
2022/07/28 09:30:19;;;;;;;6.80;5.28;;;;;;;28.02;72.51;100623.74;1788572;77;21205;-57
2022/07/28 09:33:34;;;;;;;5.47;4.95;;;;;;;28.07;72.31;100626.55;1768221;76;21224;-56
2022/07/28 09:36:47;;;;;;;8.58;5.25;;;;;;;28.16;72.22;100631.31;1768882;78;21803;-56
2022/07/28 09:40:00;;;;;;;8.33;4.85;;;;;;;28.24;72.10;100631.29;1770337;76;21307;-58
2022/07/28 09:43:09;;;;;;;6.90;5.25;;;;;;;28.29;71.90;100638.32;1783041;78;21201;-57
2022/07/28 09:46:24;;;;;;;8.75;4.70;;;;;;;28.37;71.81;100631.52;1748427;79;21209;-57
2022/07/28 09:49:51;;;;;;;11.48;4.22;;;;;;;28.44;71.65;100626.98;1768031;79;21279;-58
2022/07/28 09:52:56;;;;;;;6.47;4.42;;;;;;;28.52;71.51;100629.25;1697201;81;21261;-57
2022/07/28 09:56:06;;;;;;;4.17;3.50;;;;;;;28.57;71.15;100626.41;1684625;80;21277;-56
2022/07/28 09:59:12;;;;;;;5.95;4.17;;;;;;;28.60;70.94;100634.29;1722344;79;22071;-56
2022/07/28 10:02:17;;;;;;;4.28;3.87;;;;;;;28.65;70.73;100632.30;1718611;79;21272;-56
2022/07/28 10:05:29;;;;;;;5.22;3.95;;;;;;;28.69;70.53;100643.27;1770808;78;21273;-58
2022/07/28 10:08:54;;;;;;;7.55;4.35;;;;;;;28.83;70.18;100644.31;1862569;76;22227;-58
2022/07/28 10:12:02;;;;;;;6.05;4.67;;;;;;;28.83;70.11;100646.28;1753927;80;21231;-58
2022/07/28 10:18:50;;;;;;;5.62;4.45;;;;;;;28.98;69.92;100650.45;1721331;82;21799;-57
2022/07/28 10:21:56;;;;;;;6.87;4.42;;;;;;;29.08;69.66;100640.56;1736133;81;21192;-59
2022/07/28 10:25:14;;;;;;;7.67;4.55;;;;;;;29.12;69.46;100640.24;1724832;83;21190;-59
2022/07/28 10:28:27;;;;;;;5.25;4.53;;;;;;;29.12;68.78;100648.70;1741274;81;21236;-59
2022/07/28 10:31:41;;;;;;;9.60;4.47;;;;;;;29.12;68.78;100648.70;1722653;82;21410;-59
2022/07/28 10:35:00;;;;;;;6.58;4.20;;;;;;;29.15;68.93;100636.84;1783081;79;21221;-58
2022/07/28 10:38:28;;;;;;;8.15;4.20;;;;;;;29.27;68.90;100642.12;1792635;79;21209;-58
2022/07/28 10:41:43;;;;;;;7.70;3.62;;;;;;;29.40;68.76;100642.30;1747420;81;21256;-61
2022/07/28 10:44:52;;;;;;;5.08;4.03;;;;;;;29.49;68.48;100630.68;1740877;82;21256;-58
2022/07/28 10:48:04;;;;;;;7.85;3.90;;;;;;;29.66;68.41;100641.56;1739234;81;21719;-59
2022/07/28 10:51:15;;;;;;;4.12;3.50;;;;;;;29.85;67.54;100646.77;1722392;80;21374;-59
2022/07/28 10:54:42;;;;;;;5.40;4.05;;;;;;;29.85;67.54;100646.77;1721983;80;21821;-59
2022/07/28 10:58:03;;;;;;;4.80;3.47;;;;;;;29.91;67.29;100651.22;1718726;82;21202;-58
2022/07/28 11:01:15;;;;;;;4.37;3.60;;;;;;;29.91;66.88;100650.66;1725046;82;21762;-59
2022/07/28 11:04:57;;;;;;;4.22;3.83;;;;;;;29.94;66.61;100659.94;1729635;80;21762;-58
2022/07/28 11:08:08;;;;;;;7.50;4.10;;;;;;;29.89;66.10;100659.16;1727244;82;21208;-58
2022/07/28 11:11:19;;;;;;;5.37;4.10;;;;;;;29.86;65.87;100659.76;1729912;82;21712;-58
2022/07/28 11:14:41;;;;;;;4.40;3.98;;;;;;;29.76;65.58;100660.69;1723302;82;21235;-59
2022/07/28 11:17:49;;;;;;;7.55;5.55;;;;;;;29.66;65.26;100660.77;1724190;82;21277;-59
2022/07/28 11:21:11;;;;;;;6.22;4.40;;;;;;;29.52;64.99;100668.75;1699659;82;21181;-59
2022/07/28 11:24:16;;;;;;;5.22;4.45;;;;;;;29.42;65.02;100669.66;1727992;82;21208;-59
2022/07/28 11:27:23;;;;;;;8.05;4.85;;;;;;;29.38;65.00;100678.45;1727011;82;21173;-59
2022/07/28 11:30:38;;;;;;;5.25;4.70;;;;;;;29.35;64.80;100669.72;1730270;81;22068;-64
2022/07/28 11:33:55;;;;;;;5.28;4.47;;;;;;;29.17;64.57;100672.66;1733768;81;21233;-58
2022/07/28 11:37:18;;;;;;;9.68;4.97;;;;;;;28.99;64.50;100672.72;1734270;81;21833;-56
2022/07/28 11:41:01;;;;;;;7.78;4.97;;;;;;;28.89;64.53;100674.75;1723608;82;21276;-58
2022/07/28 11:44:39;;;;;;;7.75;5.22;;;;;;;28.84;64.26;100675.59;1713992;83;21772;-59
2022/07/28 11:47:53;;;;;;;8.23;5.85;;;;;;;28.84;64.26;100675.59;1729147;82;21276;-58
2022/07/28 11:51:33;;;;;;;8.43;5.75;;;;;;;28.81;64.28;100677.58;1703290;83;22040;-58
2022/07/28 11:54:55;;;;;;;7.30;4.85;;;;;;;28.74;64.04;100676.22;1712615;83;21241;-57
2022/07/28 11:58:01;;;;;;;7.15;4.80;;;;;;;28.70;63.83;100673.12;1726470;82;21264;-58
2022/07/28 12:01:47;;;;;;;6.67;5.37;;;;;;;28.67;63.82;100679.92;1725476;82;21229;-58
2022/07/28 12:05:06;;;;;;;5.75;4.65;;;;;;;28.54;63.70;100685.57;1728121;82;21339;-57
2022/07/28 12:08:14;;;;;;;5.78;4.72;;;;;;;28.42;63.66;100684.17;1740139;82;21479;-58
2022/07/28 12:11:21;;;;;;;5.65;4.92;;;;;;;28.33;63.59;100688.70;1725427;82;21194;-57
2022/07/28 12:14:29;;;;;;;9.40;5.53;;;;;;;28.26;63.59;100680.55;1717268;83;21293;-58
2022/07/28 12:17:42;;;;;;;5.62;5.10;;;;;;;28.29;63.62;100684.79;1717530;83;21278;-57
2022/07/28 12:20:53;;;;;;;7.00;5.55;;;;;;;28.32;63.52;100684.22;1730196;82;21770;-59
2022/07/28 12:24:01;;;;;;;5.27;4.77;;;;;;;28.33;63.46;100678.30;1741920;82;21245;-58
2022/07/28 12:27:10;;;;;;;6.83;5.15;;;;;;;28.44;63.45;100674.87;1712213;83;21374;-57
2022/07/28 12:30:19;;;;;;;5.53;4.85;;;;;;;28.52;63.33;100668.69;1737293;82;21305;-58
2022/07/28 12:33:29;;;;;;;12.13;4.90;;;;;;;28.56;63.18;100664.19;1719485;83;21233;-54
2022/07/28 12:36:36;;;;;;;6.22;4.85;;;;;;;28.63;63.10;100671.75;1739822;82;21237;-54
2022/07/28 12:39:44;;;;;;;7.30;4.28;;;;;;;28.69;62.95;100667.77;1683884;83;21321;-54
2022/07/28 12:43:06;;;;;;;5.83;4.03;;;;;;;28.85;62.41;100662.35;1723063;81;21292;-54
2022/07/28 12:46:32;;;;;;;6.40;4.37;;;;;;;28.85;62.41;100662.35;1721033;81;21239;-54
2022/07/28 12:49:40;;;;;;;6.70;4.30;;;;;;;28.95;62.11;100658.08;1717759;83;21221;-54
2022/07/28 12:52:50;;;;;;;5.45;4.15;;;;;;;28.94;62.13;100658.64;1722031;83;21864;-56
2022/07/28 12:56:09;;;;;;;6.72;4.87;;;;;;;28.94;62.13;100658.64;1722731;83;21759;-55
2022/07/28 12:59:22;;;;;;;5.67;4.87;;;;;;;28.97;62.02;100658.05;1700265;83;21569;-56
2022/07/28 13:02:43;;;;;;;6.15;4.97;;;;;;;28.97;61.90;100651.59;1718583;83;21225;-54
2022/07/28 13:06:02;;;;;;;7.33;4.95;;;;;;;28.93;61.81;100652.73;1725644;83;21241;-54
2022/07/28 13:09:13;;;;;;;6.75;4.55;;;;;;;28.84;61.80;100655.04;1724197;83;21299;-55
2022/07/28 13:12:25;;;;;;;7.45;4.78;;;;;;;28.78;61.83;100642.11;1720230;83;21237;-55
2022/07/28 13:15:31;;;;;;;7.12;4.47;;;;;;;28.83;61.94;100652.78;1722101;83;21217;-54
2022/07/28 13:18:53;;;;;;;5.78;3.90;;;;;;;28.91;61.90;100654.99;1736838;82;21245;-56
2022/07/28 13:22:00;;;;;;;5.60;3.95;;;;;;;28.99;61.80;100654.95;1711802;83;21735;-56
2022/07/28 13:25:07;;;;;;;8.33;4.40;;;;;;;29.03;61.66;100661.70;1707259;83;21237;-53
2022/07/28 13:28:16;;;;;;;8.50;5.17;;;;;;;29.06;61.52;100664.83;1715873;83;21237;-55
2022/07/28 13:31:25;;;;;;;11.50;5.22;;;;;;;29.06;61.38;100667.65;1721392;83;21257;-53
2022/07/28 13:34:35;;;;;;;10.05;6.08;;;;;;;29.11;61.27;100666.77;1706079;83;21363;-56
2022/07/28 13:37:42;;;;;;;7.95;4.87;;;;;;;29.09;61.10;100669.88;1724929;82;21316;-56
2022/07/28 13:40:50;;;;;;;6.85;3.72;;;;;;;29.03;60.99;100668.76;1695928;84;21243;-57
2022/07/28 13:43:58;;;;;;;4.60;3.50;;;;;;;28.94;60.95;100665.69;1713975;82;21711;-54
2022/07/28 13:47:07;;;;;;;5.87;3.22;;;;;;;28.66;60.72;100662.16;1725321;82;22069;-55
2022/07/28 13:50:43;;;;;;;4.58;3.60;;;;;;;28.66;60.72;100662.16;1705032;84;21241;-55
2022/07/28 13:53:55;;;;;;;5.97;3.67;;;;;;;28.56;60.67;100659.96;1685236;85;21794;-55
2022/07/28 13:57:05;;;;;;;4.90;3.67;;;;;;;28.57;60.69;100674.31;1684906;84;21229;-54
2022/07/28 14:00:16;;;;;;;;;;;;;;;28.59;60.66;100672.06;1662243;85;21790;-54
2022/07/28 14:03:21;;;;;;;5.00;3.05;;;;;;;28.56;60.55;100674.05;1674159;85;20261;-56
2022/07/28 14:06:34;;;;;;;5.92;3.30;;;;;;;28.49;60.43;100666.45;1660587;86;21240;-57
2022/07/28 14:09:40;;;;;;;4.33;2.70;;;;;;;28.45;60.41;100677.96;1662785;86;21242;-55
2022/07/28 14:12:46;;;;;;;5.03;2.85;;;;;;;28.43;60.28;100670.39;1662686;86;21226;-54
2022/07/28 14:15:54;;;;;;;5.72;2.40;;;;;;;28.42;60.28;100663.05;1662942;86;21282;-54
2022/07/28 14:19:01;;;;;;;4.25;2.33;;;;;;;28.43;60.14;100668.39;1662418;86;21807;-54
2022/07/28 14:22:19;;;;;;;4.35;3.02;;;;;;;28.38;60.03;100680.25;1661952;86;21272;-54
2022/07/28 14:25:27;;;;;;;4.28;2.58;;;;;;;28.28;59.85;100673.22;1665708;84;21225;-54
2022/07/28 14:28:35;;;;;;;3.27;2.30;;;;;;;28.17;59.83;100677.19;1666657;85;21230;-55
2022/07/28 14:31:42;;;;;;;2.90;2.10;;;;;;;28.10;59.85;100672.44;1663322;86;21297;-54
2022/07/28 14:34:49;;;;;;;3.62;2.40;;;;;;;28.07;59.74;100663.16;1663313;86;21194;-56
2022/07/28 14:37:56;;;;;;;12.05;5.55;;;;;;;28.04;59.68;100675.80;1667668;84;21268;-55
2022/07/28 14:41:07;;;;;;;18.55;8.13;;;;;;;28.03;59.64;100681.16;1675953;85;21212;-54
2022/07/28 14:44:17;;;;;;;7.53;4.00;;;;;;;27.98;59.56;100676.09;1678252;85;21228;-56